createdAt,value
2022-07-27T18:10:00.000Z,63.1
2022-07-27T18:12:00.000Z,65.3
2022-07-27T18:14:00.000Z,66.4
2022-07-27T18:16:00.000Z,67.7
2022-07-27T18:18:00.000Z,68.4
2022-07-27T18:20:00.000Z,69.1
2022-07-27T18:22:00.000Z,69.0
2022-07-27T18:24:00.000Z,69.0
2022-07-27T18:26:00.000Z,69.2
2022-07-27T18:28:00.000Z,69.6
2022-07-27T18:30:00.000Z,69.9
2022-07-27T18:32:00.000Z,70.0
2022-07-27T18:34:00.000Z,70.8
2022-07-27T18:36:00.000Z,70.9
2022-07-27T18:38:00.000Z,71.3
2022-07-27T18:40:00.000Z,70.9
2022-07-27T18:42:00.000Z,71.0
2022-07-27T18:44:00.000Z,71.9
2022-07-27T18:46:00.000Z,71.4
2022-07-27T18:48:00.000Z,71.3
2022-07-27T18:50:00.000Z,71.2
2022-07-27T18:52:00.000Z,71.4
2022-07-27T18:54:00.000Z,71.2
2022-07-27T18:56:00.000Z,71.3
2022-07-27T18:58:00.000Z,71.3
2022-07-27T19:00:00.000Z,71.5
2022-07-27T19:02:00.000Z,71.5
2022-07-27T19:04:00.000Z,71.9
2022-07-27T19:06:00.000Z,72.3
2022-07-27T19:08:00.000Z,72.5
2022-07-27T19:10:00.000Z,73.1
2022-07-27T19:12:00.000Z,73.3
2022-07-27T19:14:00.000Z,74.1
2022-07-27T19:16:00.000Z,74.3
2022-07-27T19:18:00.000Z,74.2
2022-07-27T19:20:00.000Z,74.6
2022-07-27T19:22:00.000Z,75.0
2022-07-27T19:24:00.000Z,75.4
2022-07-27T19:26:00.000Z,75.3
2022-07-27T19:28:00.000Z,75.8
2022-07-27T19:30:00.000Z,76.4
2022-07-27T19:32:00.000Z,76.4
2022-07-27T19:34:00.000Z,76.3
2022-07-27T19:36:00.000Z,76.4
2022-07-27T19:38:00.000Z,77.3
2022-07-27T19:40:00.000Z,78.3
2022-07-27T19:42:00.000Z,78.5
2022-07-27T19:44:00.000Z,78.7
2022-07-27T19:46:00.000Z,78.3
2022-07-27T19:48:00.000Z,77.8
2022-07-27T19:50:00.000Z,78.4
2022-07-27T19:52:00.000Z,79.2
2022-07-27T19:54:00.000Z,79.9
2022-07-27T19:56:00.000Z,79.7
2022-07-27T19:58:00.000Z,80.5
2022-07-27T20:00:00.000Z,81.3
2022-07-27T20:02:00.000Z,81.5
2022-07-27T20:04:00.000Z,82.8
2022-07-27T20:06:00.000Z,84.7
2022-07-27T20:08:00.000Z,86.3
2022-07-27T20:10:00.000Z,87.0
2022-07-27T20:12:00.000Z,87.1
2022-07-27T20:14:00.000Z,87.9
2022-07-27T20:16:00.000Z,88.0
2022-07-27T20:18:00.000Z,88.1
2022-07-27T20:20:00.000Z,86.9
2022-07-27T20:22:00.000Z,88.7
2022-07-27T20:24:00.000Z,88.6
2022-07-27T20:26:00.000Z,89.4
2022-07-27T20:28:00.000Z,89.9
2022-07-27T20:30:00.000Z,89.7
2022-07-27T20:32:00.000Z,90.0
2022-07-27T20:34:00.000Z,89.9
2022-07-27T20:36:00.000Z,90.2
2022-07-27T20:38:00.000Z,90.5
2022-07-27T20:40:00.000Z,90.6
2022-07-27T20:42:00.000Z,90.6
2022-07-27T20:44:00.000Z,90.9
2022-07-27T20:46:00.000Z,90.9
2022-07-27T20:48:00.000Z,91.0
2022-07-27T20:50:00.000Z,91.5
2022-07-27T20:52:00.000Z,91.3
2022-07-27T20:54:00.000Z,91.7
2022-07-27T20:56:00.000Z,91.6
2022-07-27T20:58:00.000Z,91.9
2022-07-27T21:00:00.000Z,91.9
2022-07-27T21:02:00.000Z,91.9
2022-07-27T21:04:00.000Z,92.0
2022-07-27T21:06:00.000Z,92.3
2022-07-27T21:08:00.000Z,92.6
2022-07-27T21:10:00.000Z,92.6
2022-07-27T21:12:00.000Z,92.8
2022-07-27T21:14:00.000Z,93.3
2022-07-27T21:16:00.000Z,92.7
2022-07-27T21:18:00.000Z,92.5
2022-07-27T21:20:00.000Z,92.7
2022-07-27T21:22:00.000Z,92.6
2022-07-27T21:24:00.000Z,92.6
2022-07-27T21:26:00.000Z,93.0
2022-07-27T21:28:00.000Z,93.1
2022-07-27T21:30:00.000Z,93.3
2022-07-27T21:32:00.000Z,92.9
2022-07-27T21:34:00.000Z,93.2
2022-07-27T21:36:00.000Z,93.2
2022-07-27T21:38:00.000Z,93.2
2022-07-27T21:40:00.000Z,93.2
2022-07-27T21:42:00.000Z,93.2
2022-07-27T21:44:00.000Z,93.2
2022-07-27T21:46:00.000Z,93.2
2022-07-27T21:48:00.000Z,93.3
2022-07-27T21:50:00.000Z,93.2
2022-07-27T21:52:00.000Z,93.2
2022-07-27T21:54:00.000Z,93.2
2022-07-27T21:56:00.000Z,93.3
2022-07-27T21:58:00.000Z,93.4
2022-07-27T22:00:00.000Z,93.5
2022-07-27T22:02:00.000Z,93.7
2022-07-27T22:04:00.000Z,93.8
2022-07-27T22:06:00.000Z,93.7
2022-07-27T22:08:00.000Z,93.9
2022-07-27T22:10:00.000Z,94.0
2022-07-27T22:12:00.000Z,93.7
2022-07-27T22:14:00.000Z,94.0
2022-07-27T22:16:00.000Z,93.8
2022-07-27T22:18:00.000Z,93.6
2022-07-27T22:20:00.000Z,93.8
2022-07-27T22:22:00.000Z,93.8
2022-07-27T22:24:00.000Z,94.0
2022-07-27T22:26:00.000Z,94.5
2022-07-27T22:28:00.000Z,94.2
2022-07-27T22:30:00.000Z,94.4
2022-07-27T22:32:00.000Z,94.1
2022-07-27T22:34:00.000Z,94.0
2022-07-27T22:36:00.000Z,94.0
2022-07-27T22:38:00.000Z,94.4
2022-07-27T22:40:00.000Z,94.5
2022-07-27T22:42:00.000Z,94.7
2022-07-27T22:44:00.000Z,95.3
2022-07-27T22:46:00.000Z,95.2
2022-07-27T22:48:00.000Z,95.2
2022-07-27T22:50:00.000Z,95.3
2022-07-27T22:52:00.000Z,95.2
2022-07-27T22:54:00.000Z,95.3
2022-07-27T22:56:00.000Z,95.2
2022-07-27T22:58:00.000Z,95.1
2022-07-27T23:00:00.000Z,95.1
2022-07-27T23:02:00.000Z,95.1
2022-07-27T23:04:00.000Z,95.2
2022-07-27T23:06:00.000Z,95.2
2022-07-27T23:08:00.000Z,95.2
2022-07-27T23:10:00.000Z,95.1
2022-07-27T23:12:00.000Z,95.2
2022-07-27T23:14:00.000Z,95.2
2022-07-27T23:16:00.000Z,95.2
2022-07-27T23:18:00.000Z,95.2
2022-07-27T23:20:00.000Z,95.2
2022-07-27T23:22:00.000Z,95.1
2022-07-27T23:24:00.000Z,95.5
2022-07-27T23:26:00.000Z,95.5
2022-07-27T23:28:00.000Z,95.4
2022-07-27T23:30:00.000Z,95.5
2022-07-27T23:32:00.000Z,95.8
2022-07-27T23:34:00.000Z,96.8
2022-07-27T23:36:00.000Z,96.9
2022-07-27T23:38:00.000Z,97.0
2022-07-27T23:40:00.000Z,96.1
2022-07-27T23:42:00.000Z,95.5
2022-07-27T23:44:00.000Z,95.7
2022-07-27T23:46:00.000Z,95.7
2022-07-27T23:48:00.000Z,96.4
2022-07-27T23:50:00.000Z,97.0
2022-07-27T23:52:00.000Z,97.1
2022-07-27T23:54:00.000Z,97.1
2022-07-27T23:56:00.000Z,97.2
2022-07-27T23:58:00.000Z,97.1
